sensor_id;sensor_type;location;lat;lon;timestamp;P1;durP1;ratioP1;P2;durP2;ratioP2
51995;SDS011;38010;53.264;6.592;2023-08-07T00:00:39;0.20;;;0.20;;
51995;SDS011;38010;53.264;6.592;2023-08-07T00:03:05;0.10;;;0.10;;
51995;SDS011;38010;53.264;6.592;2023-08-07T00:05:31;0.20;;;0.20;;
51995;SDS011;38010;53.264;6.592;2023-08-07T00:07:57;0.20;;;0.20;;
51995;SDS011;38010;53.264;6.592;2023-08-07T00:10:22;0.10;;;0.10;;
51995;SDS011;38010;53.264;6.592;2023-08-07T00:12:49;0.10;;;0.10;;
51995;SDS011;38010;53.264;6.592;2023-08-07T00:15:15;0.20;;;0.20;;
51995;SDS011;38010;53.264;6.592;2023-08-07T00:17:41;0.10;;;0.10;;
51995;SDS011;38010;53.264;6.592;2023-08-07T00:20:07;0.20;;;0.20;;
51995;SDS011;38010;53.264;6.592;2023-08-07T00:22:33;0.17;;;0.17;;
51995;SDS011;38010;53.264;6.592;2023-08-07T00:24:59;0.20;;;0.20;;
51995;SDS011;38010;53.264;6.592;2023-08-07T00:27:24;0.10;;;0.10;;
51995;SDS011;38010;53.264;6.592;2023-08-07T00:29:50;0.20;;;0.20;;
51995;SDS011;38010;53.264;6.592;2023-08-07T00:32:16;0.10;;;0.10;;
51995;SDS011;38010;53.264;6.592;2023-08-07T00:34:42;0.20;;;0.20;;
51995;SDS011;38010;53.264;6.592;2023-08-07T00:37:08;0.20;;;0.20;;
51995;SDS011;38010;53.264;6.592;2023-08-07T00:39:34;0.20;;;0.20;;
51995;SDS011;38010;53.264;6.592;2023-08-07T00:41:59;0.20;;;0.20;;
51995;SDS011;38010;53.264;6.592;2023-08-07T00:44:25;0.10;;;0.10;;
51995;SDS011;38010;53.264;6.592;2023-08-07T00:46:51;0.10;;;0.10;;
51995;SDS011;38010;53.264;6.592;2023-08-07T00:49:17;0.10;;;0.10;;
51995;SDS011;38010;53.264;6.592;2023-08-07T00:51:45;0.20;;;0.20;;
51995;SDS011;38010;53.264;6.592;2023-08-07T00:54:11;0.20;;;0.20;;
51995;SDS011;38010;53.264;6.592;2023-08-07T00:56:39;0.20;;;0.20;;
51995;SDS011;38010;53.264;6.592;2023-08-07T00:59:05;0.10;;;0.10;;
51995;SDS011;38010;53.264;6.592;2023-08-07T01:01:31;0.15;;;0.15;;
51995;SDS011;38010;53.264;6.592;2023-08-07T01:03:57;0.20;;;0.20;;
51995;SDS011;38010;53.264;6.592;2023-08-07T01:06:23;0.20;;;0.20;;
51995;SDS011;38010;53.264;6.592;2023-08-07T01:08:48;0.20;;;0.20;;
51995;SDS011;38010;53.264;6.592;2023-08-07T01:11:28;0.10;;;0.10;;
51995;SDS011;38010;53.264;6.592;2023-08-07T01:17:02;0.10;;;0.10;;
51995;SDS011;38010;53.264;6.592;2023-08-07T01:19:33;0.10;;;0.10;;
51995;SDS011;38010;53.264;6.592;2023-08-07T01:22:10;0.30;;;0.30;;
51995;SDS011;38010;53.264;6.592;2023-08-07T01:24:36;0.10;;;0.10;;
51995;SDS011;38010;53.264;6.592;2023-08-07T01:32:13;0.10;;;0.10;;
51995;SDS011;38010;53.264;6.592;2023-08-07T01:34:45;0.10;;;0.10;;
51995;SDS011;38010;53.264;6.592;2023-08-07T01:37:11;0.20;;;0.20;;
51995;SDS011;38010;53.264;6.592;2023-08-07T01:39:38;0.20;;;0.20;;
51995;SDS011;38010;53.264;6.592;2023-08-07T01:42:05;0.10;;;0.10;;
51995;SDS011;38010;53.264;6.592;2023-08-07T01:44:32;0.20;;;0.20;;
51995;SDS011;38010;53.264;6.592;2023-08-07T01:46:57;0.15;;;0.15;;
51995;SDS011;38010;53.264;6.592;2023-08-07T01:49:23;0.10;;;0.10;;
51995;SDS011;38010;53.264;6.592;2023-08-07T01:51:49;0.15;;;0.15;;
51995;SDS011;38010;53.264;6.592;2023-08-07T01:54:14;0.10;;;0.10;;
51995;SDS011;38010;53.264;6.592;2023-08-07T01:56:40;0.17;;;0.17;;
51995;SDS011;38010;53.264;6.592;2023-08-07T01:59:06;0.10;;;0.10;;
51995;SDS011;38010;53.264;6.592;2023-08-07T02:01:32;0.10;;;0.10;;
51995;SDS011;38010;53.264;6.592;2023-08-07T02:03:57;0.10;;;0.10;;
51995;SDS011;38010;53.264;6.592;2023-08-07T02:06:23;0.15;;;0.15;;
51995;SDS011;38010;53.264;6.592;2023-08-07T02:08:49;0.10;;;0.10;;
51995;SDS011;38010;53.264;6.592;2023-08-07T02:11:14;0.20;;;0.20;;
51995;SDS011;38010;53.264;6.592;2023-08-07T02:13:40;0.10;;;0.10;;
51995;SDS011;38010;53.264;6.592;2023-08-07T02:16:06;0.20;;;0.20;;
51995;SDS011;38010;53.264;6.592;2023-08-07T02:18:31;0.20;;;0.20;;
51995;SDS011;38010;53.264;6.592;2023-08-07T02:20:57;0.20;;;0.20;;
51995;SDS011;38010;53.264;6.592;2023-08-07T02:23:23;0.20;;;0.20;;
51995;SDS011;38010;53.264;6.592;2023-08-07T02:25:48;0.10;;;0.10;;
51995;SDS011;38010;53.264;6.592;2023-08-07T02:28:14;0.20;;;0.20;;
51995;SDS011;38010;53.264;6.592;2023-08-07T02:30:40;0.10;;;0.10;;
51995;SDS011;38010;53.264;6.592;2023-08-07T02:33:05;0.40;;;0.20;;
51995;SDS011;38010;53.264;6.592;2023-08-07T02:35:31;0.10;;;0.10;;
51995;SDS011;38010;53.264;6.592;2023-08-07T02:37:57;0.20;;;0.20;;
51995;SDS011;38010;53.264;6.592;2023-08-07T02:40:23;0.10;;;0.10;;
51995;SDS011;38010;53.264;6.592;2023-08-07T02:42:48;0.10;;;0.10;;
51995;SDS011;38010;53.264;6.592;2023-08-07T02:45:14;0.20;;;0.20;;
51995;SDS011;38010;53.264;6.592;2023-08-07T02:47:40;0.20;;;0.20;;
51995;SDS011;38010;53.264;6.592;2023-08-07T02:50:05;0.20;;;0.20;;
51995;SDS011;38010;53.264;6.592;2023-08-07T02:52:31;0.20;;;0.20;;
51995;SDS011;38010;53.264;6.592;2023-08-07T02:54:57;0.10;;;0.10;;
51995;SDS011;38010;53.264;6.592;2023-08-07T02:57:23;0.20;;;0.20;;
51995;SDS011;38010;53.264;6.592;2023-08-07T02:59:50;0.20;;;0.20;;
51995;SDS011;38010;53.264;6.592;2023-08-07T03:02:16;0.20;;;0.20;;
51995;SDS011;38010;53.264;6.592;2023-08-07T03:04:42;0.20;;;0.20;;
51995;SDS011;38010;53.264;6.592;2023-08-07T03:07:07;0.10;;;0.10;;
51995;SDS011;38010;53.264;6.592;2023-08-07T03:09:33;0.10;;;0.10;;
51995;SDS011;38010;53.264;6.592;2023-08-07T03:11:59;0.13;;;0.13;;
51995;SDS011;38010;53.264;6.592;2023-08-07T03:14:28;0.10;;;0.10;;
51995;SDS011;38010;53.264;6.592;2023-08-07T03:16:55;0.20;;;0.20;;
51995;SDS011;38010;53.264;6.592;2023-08-07T03:19:20;0.17;;;0.17;;
51995;SDS011;38010;53.264;6.592;2023-08-07T03:21:46;0.10;;;0.10;;
51995;SDS011;38010;53.264;6.592;2023-08-07T03:24:12;0.10;;;0.10;;
51995;SDS011;38010;53.264;6.592;2023-08-07T03:26:38;0.17;;;0.17;;
51995;SDS011;38010;53.264;6.592;2023-08-07T03:29:04;0.13;;;0.13;;
51995;SDS011;38010;53.264;6.592;2023-08-07T03:31:29;0.10;;;0.10;;
51995;SDS011;38010;53.264;6.592;2023-08-07T03:33:55;0.20;;;0.20;;
51995;SDS011;38010;53.264;6.592;2023-08-07T03:36:21;0.20;;;0.20;;
51995;SDS011;38010;53.264;6.592;2023-08-07T03:38:47;0.20;;;0.20;;
51995;SDS011;38010;53.264;6.592;2023-08-07T03:41:12;0.10;;;0.10;;
51995;SDS011;38010;53.264;6.592;2023-08-07T03:43:38;0.20;;;0.20;;
51995;SDS011;38010;53.264;6.592;2023-08-07T03:46:04;0.20;;;0.20;;
51995;SDS011;38010;53.264;6.592;2023-08-07T03:48:30;0.10;;;0.10;;
51995;SDS011;38010;53.264;6.592;2023-08-07T03:51:02;0.10;;;0.10;;
51995;SDS011;38010;53.264;6.592;2023-08-07T03:53:29;0.20;;;0.20;;
51995;SDS011;38010;53.264;6.592;2023-08-07T03:55:54;0.20;;;0.20;;
51995;SDS011;38010;53.264;6.592;2023-08-07T03:58:20;0.10;;;0.10;;
51995;SDS011;38010;53.264;6.592;2023-08-07T04:00:46;0.10;;;0.10;;
51995;SDS011;38010;53.264;6.592;2023-08-07T04:03:11;0.13;;;0.10;;
51995;SDS011;38010;53.264;6.592;2023-08-07T04:05:37;0.25;;;0.20;;
51995;SDS011;38010;53.264;6.592;2023-08-07T04:08:03;0.20;;;0.20;;
51995;SDS011;38010;53.264;6.592;2023-08-07T04:10:29;0.10;;;0.10;;
51995;SDS011;38010;53.264;6.592;2023-08-07T04:12:55;0.13;;;0.13;;
51995;SDS011;38010;53.264;6.592;2023-08-07T04:15:20;0.20;;;0.20;;
51995;SDS011;38010;53.264;6.592;2023-08-07T04:17:46;0.20;;;0.20;;
51995;SDS011;38010;53.264;6.592;2023-08-07T04:20:12;0.20;;;0.20;;
51995;SDS011;38010;53.264;6.592;2023-08-07T04:22:37;0.20;;;0.20;;
51995;SDS011;38010;53.264;6.592;2023-08-07T04:25:03;0.20;;;0.20;;
51995;SDS011;38010;53.264;6.592;2023-08-07T04:27:29;0.20;;;0.20;;
51995;SDS011;38010;53.264;6.592;2023-08-07T04:29:55;0.20;;;0.20;;
51995;SDS011;38010;53.264;6.592;2023-08-07T04:32:20;0.20;;;0.20;;
51995;SDS011;38010;53.264;6.592;2023-08-07T04:34:46;0.20;;;0.20;;
51995;SDS011;38010;53.264;6.592;2023-08-07T04:37:12;0.20;;;0.20;;
51995;SDS011;38010;53.264;6.592;2023-08-07T04:39:37;0.20;;;0.20;;
51995;SDS011;38010;53.264;6.592;2023-08-07T04:42:03;0.10;;;0.10;;
51995;SDS011;38010;53.264;6.592;2023-08-07T04:44:29;0.20;;;0.20;;
51995;SDS011;38010;53.264;6.592;2023-08-07T04:46:55;0.20;;;0.20;;
51995;SDS011;38010;53.264;6.592;2023-08-07T04:49:20;0.10;;;0.10;;
51995;SDS011;38010;53.264;6.592;2023-08-07T04:51:46;0.20;;;0.20;;
51995;SDS011;38010;53.264;6.592;2023-08-07T04:54:12;0.28;;;0.28;;
51995;SDS011;38010;53.264;6.592;2023-08-07T04:56:38;0.15;;;0.15;;
51995;SDS011;38010;53.264;6.592;2023-08-07T04:59:03;0.20;;;0.20;;
51995;SDS011;38010;53.264;6.592;2023-08-07T05:01:29;0.20;;;0.20;;
51995;SDS011;38010;53.264;6.592;2023-08-07T05:03:55;0.20;;;0.20;;
51995;SDS011;38010;53.264;6.592;2023-08-07T05:06:20;0.20;;;0.20;;
51995;SDS011;38010;53.264;6.592;2023-08-07T05:08:46;0.20;;;0.20;;
51995;SDS011;38010;53.264;6.592;2023-08-07T05:11:12;0.20;;;0.20;;
51995;SDS011;38010;53.264;6.592;2023-08-07T05:13:38;0.20;;;0.20;;
51995;SDS011;38010;53.264;6.592;2023-08-07T05:16:04;0.20;;;0.20;;
51995;SDS011;38010;53.264;6.592;2023-08-07T05:18:31;0.20;;;0.20;;
51995;SDS011;38010;53.264;6.592;2023-08-07T05:20:56;0.20;;;0.20;;
51995;SDS011;38010;53.264;6.592;2023-08-07T05:23:22;0.20;;;0.20;;
51995;SDS011;38010;53.264;6.592;2023-08-07T05:25:48;0.20;;;0.20;;
51995;SDS011;38010;53.264;6.592;2023-08-07T05:28:13;0.30;;;0.30;;
51995;SDS011;38010;53.264;6.592;2023-08-07T05:30:39;0.20;;;0.20;;
51995;SDS011;38010;53.264;6.592;2023-08-07T05:33:05;0.20;;;0.20;;
51995;SDS011;38010;53.264;6.592;2023-08-07T05:35:30;0.20;;;0.20;;
51995;SDS011;38010;53.264;6.592;2023-08-07T05:37:56;0.20;;;0.20;;
51995;SDS011;38010;53.264;6.592;2023-08-07T05:40:22;0.20;;;0.20;;
51995;SDS011;38010;53.264;6.592;2023-08-07T05:42:47;0.30;;;0.30;;
51995;SDS011;38010;53.264;6.592;2023-08-07T05:45:13;0.50;;;0.20;;
51995;SDS011;38010;53.264;6.592;2023-08-07T05:47:39;0.47;;;0.20;;
51995;SDS011;38010;53.264;6.592;2023-08-07T05:50:04;0.25;;;0.20;;
51995;SDS011;38010;53.264;6.592;2023-08-07T05:52:31;0.25;;;0.25;;
51995;SDS011;38010;53.264;6.592;2023-08-07T05:54:56;0.30;;;0.30;;
51995;SDS011;38010;53.264;6.592;2023-08-07T05:57:22;0.20;;;0.20;;
51995;SDS011;38010;53.264;6.592;2023-08-07T05:59:48;0.25;;;0.20;;
51995;SDS011;38010;53.264;6.592;2023-08-07T06:02:13;0.30;;;0.30;;
51995;SDS011;38010;53.264;6.592;2023-08-07T06:04:39;0.80;;;0.30;;
51995;SDS011;38010;53.264;6.592;2023-08-07T06:07:05;0.20;;;0.20;;
51995;SDS011;38010;53.264;6.592;2023-08-07T06:09:32;0.30;;;0.30;;
51995;SDS011;38010;53.264;6.592;2023-08-07T06:11:58;0.30;;;0.30;;
51995;SDS011;38010;53.264;6.592;2023-08-07T06:14:24;0.20;;;0.20;;
51995;SDS011;38010;53.264;6.592;2023-08-07T06:16:50;0.30;;;0.30;;
51995;SDS011;38010;53.264;6.592;2023-08-07T06:19:17;0.20;;;0.20;;
51995;SDS011;38010;53.264;6.592;2023-08-07T06:21:42;0.20;;;0.20;;
51995;SDS011;38010;53.264;6.592;2023-08-07T06:24:08;0.30;;;0.30;;
51995;SDS011;38010;53.264;6.592;2023-08-07T06:26:34;0.32;;;0.30;;
51995;SDS011;38010;53.264;6.592;2023-08-07T06:29:00;0.30;;;0.30;;
51995;SDS011;38010;53.264;6.592;2023-08-07T06:31:26;0.47;;;0.30;;
51995;SDS011;38010;53.264;6.592;2023-08-07T06:33:51;1.80;;;0.47;;
51995;SDS011;38010;53.264;6.592;2023-08-07T06:36:17;0.30;;;0.30;;
51995;SDS011;38010;53.264;6.592;2023-08-07T06:38:43;0.30;;;0.30;;
51995;SDS011;38010;53.264;6.592;2023-08-07T06:41:09;0.73;;;0.25;;
51995;SDS011;38010;53.264;6.592;2023-08-07T06:43:34;0.30;;;0.30;;
51995;SDS011;38010;53.264;6.592;2023-08-07T06:46:00;0.38;;;0.20;;
51995;SDS011;38010;53.264;6.592;2023-08-07T06:48:26;0.20;;;0.20;;
51995;SDS011;38010;53.264;6.592;2023-08-07T06:50:52;0.22;;;0.20;;
51995;SDS011;38010;53.264;6.592;2023-08-07T06:53:17;0.20;;;0.20;;
51995;SDS011;38010;53.264;6.592;2023-08-07T06:55:44;0.20;;;0.20;;
51995;SDS011;38010;53.264;6.592;2023-08-07T06:58:10;0.20;;;0.20;;
51995;SDS011;38010;53.264;6.592;2023-08-07T07:00:36;0.20;;;0.20;;
51995;SDS011;38010;53.264;6.592;2023-08-07T07:03:02;0.20;;;0.20;;
51995;SDS011;38010;53.264;6.592;2023-08-07T07:05:29;0.20;;;0.20;;
51995;SDS011;38010;53.264;6.592;2023-08-07T07:07:55;0.20;;;0.20;;
51995;SDS011;38010;53.264;6.592;2023-08-07T07:10:22;1.15;;;0.30;;
51995;SDS011;38010;53.264;6.592;2023-08-07T07:12:47;0.30;;;0.30;;
51995;SDS011;38010;53.264;6.592;2023-08-07T07:15:13;0.20;;;0.20;;
51995;SDS011;38010;53.264;6.592;2023-08-07T07:17:39;0.20;;;0.20;;
51995;SDS011;38010;53.264;6.592;2023-08-07T07:20:05;0.30;;;0.30;;
51995;SDS011;38010;53.264;6.592;2023-08-07T07:22:31;0.30;;;0.30;;
51995;SDS011;38010;53.264;6.592;2023-08-07T07:24:58;0.28;;;0.28;;
51995;SDS011;38010;53.264;6.592;2023-08-07T07:27:24;0.30;;;0.30;;
51995;SDS011;38010;53.264;6.592;2023-08-07T07:29:51;0.20;;;0.20;;
51995;SDS011;38010;53.264;6.592;2023-08-07T07:32:17;0.20;;;0.20;;
51995;SDS011;38010;53.264;6.592;2023-08-07T07:34:43;0.20;;;0.20;;
51995;SDS011;38010;53.264;6.592;2023-08-07T07:37:09;0.20;;;0.20;;
51995;SDS011;38010;53.264;6.592;2023-08-07T07:39:35;0.30;;;0.30;;
51995;SDS011;38010;53.264;6.592;2023-08-07T07:42:01;0.20;;;0.20;;
51995;SDS011;38010;53.264;6.592;2023-08-07T07:44:29;0.57;;;0.30;;
51995;SDS011;38010;53.264;6.592;2023-08-07T07:46:56;1.38;;;0.28;;
51995;SDS011;38010;53.264;6.592;2023-08-07T07:49:22;1.08;;;0.40;;
51995;SDS011;38010;53.264;6.592;2023-08-07T07:51:48;0.50;;;0.40;;
51995;SDS011;38010;53.264;6.592;2023-08-07T07:54:14;0.57;;;0.30;;
51995;SDS011;38010;53.264;6.592;2023-08-07T07:56:40;1.48;;;0.40;;
51995;SDS011;38010;53.264;6.592;2023-08-07T07:59:07;0.30;;;0.30;;
51995;SDS011;38010;53.264;6.592;2023-08-07T08:01:32;0.25;;;0.22;;
51995;SDS011;38010;53.264;6.592;2023-08-07T08:03:58;0.30;;;0.30;;
51995;SDS011;38010;53.264;6.592;2023-08-07T08:06:26;0.55;;;0.40;;
51995;SDS011;38010;53.264;6.592;2023-08-07T08:08:53;0.88;;;0.30;;
51995;SDS011;38010;53.264;6.592;2023-08-07T08:11:21;0.73;;;0.30;;
51995;SDS011;38010;53.264;6.592;2023-08-07T08:13:47;0.77;;;0.40;;
51995;SDS011;38010;53.264;6.592;2023-08-07T08:16:12;0.63;;;0.30;;
51995;SDS011;38010;53.264;6.592;2023-08-07T08:18:40;0.28;;;0.28;;
51995;SDS011;38010;53.264;6.592;2023-08-07T08:21:06;0.30;;;0.30;;
51995;SDS011;38010;53.264;6.592;2023-08-07T08:23:32;0.30;;;0.30;;
51995;SDS011;38010;53.264;6.592;2023-08-07T08:25:57;0.30;;;0.30;;
51995;SDS011;38010;53.264;6.592;2023-08-07T08:28:23;0.30;;;0.30;;
51995;SDS011;38010;53.264;6.592;2023-08-07T08:30:49;0.75;;;0.40;;
51995;SDS011;38010;53.264;6.592;2023-08-07T08:33:15;1.33;;;0.30;;
51995;SDS011;38010;53.264;6.592;2023-08-07T08:35:40;1.55;;;0.30;;
51995;SDS011;38010;53.264;6.592;2023-08-07T08:38:06;0.30;;;0.30;;
51995;SDS011;38010;53.264;6.592;2023-08-07T08:40:33;0.32;;;0.30;;
51995;SDS011;38010;53.264;6.592;2023-08-07T08:43:00;0.30;;;0.30;;
51995;SDS011;38010;53.264;6.592;2023-08-07T08:45:27;0.90;;;0.40;;
51995;SDS011;38010;53.264;6.592;2023-08-07T08:47:55;0.38;;;0.32;;
51995;SDS011;38010;53.264;6.592;2023-08-07T08:50:28;0.25;;;0.25;;
51995;SDS011;38010;53.264;6.592;2023-08-07T08:52:55;0.30;;;0.30;;
51995;SDS011;38010;53.264;6.592;2023-08-07T08:55:22;0.35;;;0.35;;
51995;SDS011;38010;53.264;6.592;2023-08-07T08:57:48;0.57;;;0.30;;
51995;SDS011;38010;53.264;6.592;2023-08-07T09:00:19;0.30;;;0.30;;
51995;SDS011;38010;53.264;6.592;2023-08-07T09:02:50;0.47;;;0.30;;
51995;SDS011;38010;53.264;6.592;2023-08-07T09:05:17;0.30;;;0.30;;
51995;SDS011;38010;53.264;6.592;2023-08-07T09:07:44;0.60;;;0.30;;
51995;SDS011;38010;53.264;6.592;2023-08-07T09:10:16;0.30;;;0.30;;
51995;SDS011;38010;53.264;6.592;2023-08-07T09:12:42;0.40;;;0.30;;
51995;SDS011;38010;53.264;6.592;2023-08-07T09:15:18;0.30;;;0.30;;
51995;SDS011;38010;53.264;6.592;2023-08-07T09:17:45;0.30;;;0.30;;
51995;SDS011;38010;53.264;6.592;2023-08-07T09:20:12;0.90;;;0.52;;
51995;SDS011;38010;53.264;6.592;2023-08-07T09:22:40;0.32;;;0.32;;
51995;SDS011;38010;53.264;6.592;2023-08-07T09:25:06;0.40;;;0.40;;
51995;SDS011;38010;53.264;6.592;2023-08-07T09:27:35;0.40;;;0.30;;
51995;SDS011;38010;53.264;6.592;2023-08-07T09:30:06;0.30;;;0.30;;
51995;SDS011;38010;53.264;6.592;2023-08-07T09:32:35;0.47;;;0.30;;
51995;SDS011;38010;53.264;6.592;2023-08-07T09:35:02;0.40;;;0.40;;
51995;SDS011;38010;53.264;6.592;2023-08-07T09:37:30;0.35;;;0.30;;
51995;SDS011;38010;53.264;6.592;2023-08-07T09:39:56;0.35;;;0.30;;
51995;SDS011;38010;53.264;6.592;2023-08-07T09:42:24;0.30;;;0.30;;
51995;SDS011;38010;53.264;6.592;2023-08-07T09:44:50;0.30;;;0.30;;
51995;SDS011;38010;53.264;6.592;2023-08-07T09:47:16;0.30;;;0.30;;
51995;SDS011;38010;53.264;6.592;2023-08-07T09:49:44;0.20;;;0.20;;
51995;SDS011;38010;53.264;6.592;2023-08-07T09:52:13;0.30;;;0.30;;
51995;SDS011;38010;53.264;6.592;2023-08-07T09:54:40;0.30;;;0.30;;
51995;SDS011;38010;53.264;6.592;2023-08-07T09:57:07;0.20;;;0.20;;
51995;SDS011;38010;53.264;6.592;2023-08-07T09:59:33;0.30;;;0.30;;
51995;SDS011;38010;53.264;6.592;2023-08-07T10:02:03;0.30;;;0.30;;
51995;SDS011;38010;53.264;6.592;2023-08-07T10:04:29;0.20;;;0.20;;
51995;SDS011;38010;53.264;6.592;2023-08-07T10:06:56;0.30;;;0.30;;
51995;SDS011;38010;53.264;6.592;2023-08-07T10:09:22;0.20;;;0.20;;
51995;SDS011;38010;53.264;6.592;2023-08-07T10:11:48;0.30;;;0.30;;
51995;SDS011;38010;53.264;6.592;2023-08-07T10:14:15;0.20;;;0.20;;
51995;SDS011;38010;53.264;6.592;2023-08-07T10:16:41;0.30;;;0.25;;
51995;SDS011;38010;53.264;6.592;2023-08-07T10:19:08;0.30;;;0.30;;
51995;SDS011;38010;53.264;6.592;2023-08-07T10:21:41;0.25;;;0.25;;
51995;SDS011;38010;53.264;6.592;2023-08-07T10:24:08;0.20;;;0.20;;
51995;SDS011;38010;53.264;6.592;2023-08-07T10:26:37;0.22;;;0.20;;
51995;SDS011;38010;53.264;6.592;2023-08-07T10:29:07;0.20;;;0.20;;
51995;SDS011;38010;53.264;6.592;2023-08-07T10:31:36;0.20;;;0.20;;
51995;SDS011;38010;53.264;6.592;2023-08-07T10:34:05;0.20;;;0.20;;
51995;SDS011;38010;53.264;6.592;2023-08-07T10:36:34;0.30;;;0.30;;
51995;SDS011;38010;53.264;6.592;2023-08-07T10:39:10;0.20;;;0.20;;
51995;SDS011;38010;53.264;6.592;2023-08-07T10:41:41;0.30;;;0.30;;
51995;SDS011;38010;53.264;6.592;2023-08-07T10:44:16;0.22;;;0.20;;
51995;SDS011;38010;53.264;6.592;2023-08-07T10:47:01;0.20;;;0.20;;
51995;SDS011;38010;53.264;6.592;2023-08-07T10:49:31;0.30;;;0.30;;
51995;SDS011;38010;53.264;6.592;2023-08-07T10:51:58;0.20;;;0.20;;
51995;SDS011;38010;53.264;6.592;2023-08-07T10:54:27;0.22;;;0.22;;
51995;SDS011;38010;53.264;6.592;2023-08-07T10:56:53;0.30;;;0.30;;
51995;SDS011;38010;53.264;6.592;2023-08-07T10:59:19;0.20;;;0.20;;
51995;SDS011;38010;53.264;6.592;2023-08-07T11:01:50;0.30;;;0.30;;
51995;SDS011;38010;53.264;6.592;2023-08-07T11:04:19;0.43;;;0.30;;
51995;SDS011;38010;53.264;6.592;2023-08-07T11:06:51;0.28;;;0.28;;
51995;SDS011;38010;53.264;6.592;2023-08-07T11:09:17;0.20;;;0.20;;
51995;SDS011;38010;53.264;6.592;2023-08-07T11:11:43;0.28;;;0.28;;
51995;SDS011;38010;53.264;6.592;2023-08-07T11:14:15;0.20;;;0.20;;
51995;SDS011;38010;53.264;6.592;2023-08-07T11:16:42;0.20;;;0.20;;
51995;SDS011;38010;53.264;6.592;2023-08-07T11:19:08;0.20;;;0.20;;
51995;SDS011;38010;53.264;6.592;2023-08-07T11:21:35;0.30;;;0.30;;
51995;SDS011;38010;53.264;6.592;2023-08-07T11:24:01;0.20;;;0.20;;
51995;SDS011;38010;53.264;6.592;2023-08-07T11:26:28;0.20;;;0.20;;
51995;SDS011;38010;53.264;6.592;2023-08-07T11:28:54;0.30;;;0.30;;
51995;SDS011;38010;53.264;6.592;2023-08-07T11:31:20;0.30;;;0.30;;
51995;SDS011;38010;53.264;6.592;2023-08-07T11:33:49;0.30;;;0.30;;
51995;SDS011;38010;53.264;6.592;2023-08-07T11:36:16;0.30;;;0.30;;
51995;SDS011;38010;53.264;6.592;2023-08-07T11:38:42;0.45;;;0.30;;
51995;SDS011;38010;53.264;6.592;2023-08-07T11:41:09;0.30;;;0.30;;
51995;SDS011;38010;53.264;6.592;2023-08-07T11:43:39;0.20;;;0.20;;
51995;SDS011;38010;53.264;6.592;2023-08-07T11:46:06;0.30;;;0.30;;
51995;SDS011;38010;53.264;6.592;2023-08-07T11:48:33;0.22;;;0.22;;
51995;SDS011;38010;53.264;6.592;2023-08-07T11:51:01;0.20;;;0.20;;
51995;SDS011;38010;53.264;6.592;2023-08-07T11:53:28;0.40;;;0.30;;
51995;SDS011;38010;53.264;6.592;2023-08-07T11:55:57;0.20;;;0.20;;
51995;SDS011;38010;53.264;6.592;2023-08-07T11:58:25;0.25;;;0.25;;
51995;SDS011;38010;53.264;6.592;2023-08-07T12:00:53;0.20;;;0.20;;
51995;SDS011;38010;53.264;6.592;2023-08-07T12:03:23;0.22;;;0.22;;
51995;SDS011;38010;53.264;6.592;2023-08-07T12:05:56;0.55;;;0.35;;
51995;SDS011;38010;53.264;6.592;2023-08-07T12:08:24;0.20;;;0.20;;
51995;SDS011;38010;53.264;6.592;2023-08-07T12:10:53;0.20;;;0.20;;
51995;SDS011;38010;53.264;6.592;2023-08-07T12:13:25;0.20;;;0.20;;
51995;SDS011;38010;53.264;6.592;2023-08-07T12:15:54;0.30;;;0.30;;
51995;SDS011;38010;53.264;6.592;2023-08-07T12:18:22;0.30;;;0.30;;
51995;SDS011;38010;53.264;6.592;2023-08-07T12:20:52;0.20;;;0.20;;
51995;SDS011;38010;53.264;6.592;2023-08-07T12:23:22;0.40;;;0.25;;
51995;SDS011;38010;53.264;6.592;2023-08-07T12:25:48;0.20;;;0.20;;
51995;SDS011;38010;53.264;6.592;2023-08-07T12:28:14;0.20;;;0.20;;
51995;SDS011;38010;53.264;6.592;2023-08-07T12:30:43;0.30;;;0.30;;
51995;SDS011;38010;53.264;6.592;2023-08-07T12:33:11;0.20;;;0.20;;
51995;SDS011;38010;53.264;6.592;2023-08-07T12:35:37;0.30;;;0.30;;
51995;SDS011;38010;53.264;6.592;2023-08-07T12:38:03;0.30;;;0.30;;
51995;SDS011;38010;53.264;6.592;2023-08-07T12:40:29;0.20;;;0.20;;
51995;SDS011;38010;53.264;6.592;2023-08-07T12:42:55;0.30;;;0.30;;
51995;SDS011;38010;53.264;6.592;2023-08-07T12:45:21;0.52;;;0.30;;
51995;SDS011;38010;53.264;6.592;2023-08-07T12:47:48;1.70;;;0.30;;
51995;SDS011;38010;53.264;6.592;2023-08-07T12:50:13;0.65;;;0.30;;
51995;SDS011;38010;53.264;6.592;2023-08-07T12:52:39;0.50;;;0.40;;
51995;SDS011;38010;53.264;6.592;2023-08-07T12:55:05;0.22;;;0.20;;
51995;SDS011;38010;53.264;6.592;2023-08-07T12:57:32;0.60;;;0.40;;
51995;SDS011;38010;53.264;6.592;2023-08-07T12:59:58;0.35;;;0.35;;
51995;SDS011;38010;53.264;6.592;2023-08-07T13:02:24;0.43;;;0.38;;
51995;SDS011;38010;53.264;6.592;2023-08-07T13:04:49;0.30;;;0.30;;
51995;SDS011;38010;53.264;6.592;2023-08-07T13:07:16;0.30;;;0.30;;
51995;SDS011;38010;53.264;6.592;2023-08-07T13:09:43;0.30;;;0.30;;
51995;SDS011;38010;53.264;6.592;2023-08-07T13:12:08;0.30;;;0.30;;
51995;SDS011;38010;53.264;6.592;2023-08-07T13:14:34;0.28;;;0.28;;
51995;SDS011;38010;53.264;6.592;2023-08-07T13:17:00;0.20;;;0.20;;
51995;SDS011;38010;53.264;6.592;2023-08-07T13:19:25;0.20;;;0.20;;
51995;SDS011;38010;53.264;6.592;2023-08-07T13:21:51;0.35;;;0.35;;
51995;SDS011;38010;53.264;6.592;2023-08-07T13:24:17;0.38;;;0.25;;
51995;SDS011;38010;53.264;6.592;2023-08-07T13:26:43;0.30;;;0.30;;
51995;SDS011;38010;53.264;6.592;2023-08-07T13:29:11;0.47;;;0.22;;
51995;SDS011;38010;53.264;6.592;2023-08-07T13:31:37;0.20;;;0.20;;
51995;SDS011;38010;53.264;6.592;2023-08-07T13:34:03;0.30;;;0.30;;
51995;SDS011;38010;53.264;6.592;2023-08-07T13:36:33;0.68;;;0.30;;
51995;SDS011;38010;53.264;6.592;2023-08-07T13:39:01;0.52;;;0.40;;
51995;SDS011;38010;53.264;6.592;2023-08-07T13:41:27;0.20;;;0.20;;
51995;SDS011;38010;53.264;6.592;2023-08-07T13:43:53;0.20;;;0.20;;
51995;SDS011;38010;53.264;6.592;2023-08-07T13:46:18;0.40;;;0.30;;
51995;SDS011;38010;53.264;6.592;2023-08-07T13:48:44;0.28;;;0.20;;
51995;SDS011;38010;53.264;6.592;2023-08-07T13:51:10;0.30;;;0.30;;
51995;SDS011;38010;53.264;6.592;2023-08-07T13:53:36;0.32;;;0.30;;
51995;SDS011;38010;53.264;6.592;2023-08-07T13:56:02;1.00;;;0.50;;
51995;SDS011;38010;53.264;6.592;2023-08-07T13:58:28;0.85;;;0.40;;
51995;SDS011;38010;53.264;6.592;2023-08-07T14:00:55;0.70;;;0.40;;
51995;SDS011;38010;53.264;6.592;2023-08-07T14:03:22;0.47;;;0.45;;
51995;SDS011;38010;53.264;6.592;2023-08-07T14:05:48;0.68;;;0.50;;
51995;SDS011;38010;53.264;6.592;2023-08-07T14:08:15;0.75;;;0.63;;
51995;SDS011;38010;53.264;6.592;2023-08-07T14:10:41;1.30;;;0.65;;
51995;SDS011;38010;53.264;6.592;2023-08-07T14:13:07;0.47;;;0.47;;
51995;SDS011;38010;53.264;6.592;2023-08-07T14:15:34;0.40;;;0.40;;
51995;SDS011;38010;53.264;6.592;2023-08-07T14:18:00;0.38;;;0.38;;
51995;SDS011;38010;53.264;6.592;2023-08-07T14:20:26;0.30;;;0.30;;
51995;SDS011;38010;53.264;6.592;2023-08-07T14:22:52;1.27;;;0.50;;
51995;SDS011;38010;53.264;6.592;2023-08-07T14:25:17;0.95;;;0.40;;
51995;SDS011;38010;53.264;6.592;2023-08-07T14:27:43;0.73;;;0.40;;
51995;SDS011;38010;53.264;6.592;2023-08-07T14:30:09;0.50;;;0.50;;
51995;SDS011;38010;53.264;6.592;2023-08-07T14:32:35;0.30;;;0.30;;
51995;SDS011;38010;53.264;6.592;2023-08-07T14:35:01;0.75;;;0.50;;
51995;SDS011;38010;53.264;6.592;2023-08-07T14:37:27;0.47;;;0.30;;
51995;SDS011;38010;53.264;6.592;2023-08-07T14:39:53;0.35;;;0.30;;
51995;SDS011;38010;53.264;6.592;2023-08-07T14:42:19;0.38;;;0.30;;
51995;SDS011;38010;53.264;6.592;2023-08-07T14:44:44;0.32;;;0.32;;
51995;SDS011;38010;53.264;6.592;2023-08-07T14:47:10;0.30;;;0.30;;
51995;SDS011;38010;53.264;6.592;2023-08-07T14:49:36;0.40;;;0.40;;
51995;SDS011;38010;53.264;6.592;2023-08-07T14:52:02;0.55;;;0.32;;